sensor_id;sensor_type;location;lat;lon;timestamp;P1;durP1;ratioP1;P2;durP2;ratioP2
7511;SDS011;9999;48.780;9.146;2022-11-15T00:00:36;1.70;;;1.60;;
7511;SDS011;9999;48.780;9.146;2022-11-15T00:03:23;3.90;;;1.63;;
7511;SDS011;9999;48.780;9.146;2022-11-15T00:06:10;3.80;;;1.23;;
7511;SDS011;9999;48.780;9.146;2022-11-15T00:08:57;2.63;;;1.50;;
7511;SDS011;9999;48.780;9.146;2022-11-15T00:11:43;1.97;;;1.40;;
7511;SDS011;9999;48.780;9.146;2022-11-15T00:14:28;2.45;;;1.80;;
7511;SDS011;9999;48.780;9.146;2022-11-15T00:17:14;1.93;;;1.47;;
7511;SDS011;9999;48.780;9.146;2022-11-15T00:20:00;2.70;;;2.00;;
7511;SDS011;9999;48.780;9.146;2022-11-15T00:22:47;3.17;;;1.17;;
7511;SDS011;9999;48.780;9.146;2022-11-15T00:25:32;1.23;;;1.00;;
7511;SDS011;9999;48.780;9.146;2022-11-15T00:28:18;1.57;;;1.10;;
7511;SDS011;9999;48.780;9.146;2022-11-15T00:31:04;1.40;;;1.30;;
7511;SDS011;9999;48.780;9.146;2022-11-15T00:33:52;1.00;;;0.88;;
7511;SDS011;9999;48.780;9.146;2022-11-15T00:36:37;1.53;;;1.20;;
7511;SDS011;9999;48.780;9.146;2022-11-15T00:39:24;1.50;;;1.40;;
7511;SDS011;9999;48.780;9.146;2022-11-15T00:42:10;1.77;;;1.65;;
7511;SDS011;9999;48.780;9.146;2022-11-15T00:44:55;1.90;;;1.50;;
7511;SDS011;9999;48.780;9.146;2022-11-15T00:47:43;1.83;;;1.13;;
7511;SDS011;9999;48.780;9.146;2022-11-15T00:50:29;2.50;;;1.42;;
7511;SDS011;9999;48.780;9.146;2022-11-15T00:53:15;1.35;;;1.25;;
7511;SDS011;9999;48.780;9.146;2022-11-15T00:56:02;2.65;;;1.42;;
7511;SDS011;9999;48.780;9.146;2022-11-15T00:58:47;1.55;;;1.40;;
7511;SDS011;9999;48.780;9.146;2022-11-15T01:01:33;2.70;;;1.00;;
7511;SDS011;9999;48.780;9.146;2022-11-15T01:04:19;1.55;;;1.45;;
7511;SDS011;9999;48.780;9.146;2022-11-15T01:07:04;1.40;;;1.30;;
7511;SDS011;9999;48.780;9.146;2022-11-15T01:09:50;1.17;;;1.08;;
7511;SDS011;9999;48.780;9.146;2022-11-15T01:12:37;1.38;;;1.20;;
7511;SDS011;9999;48.780;9.146;2022-11-15T01:15:22;1.10;;;1.10;;
7511;SDS011;9999;48.780;9.146;2022-11-15T01:18:08;1.23;;;1.13;;
7511;SDS011;9999;48.780;9.146;2022-11-15T01:20:53;1.63;;;1.27;;
7511;SDS011;9999;48.780;9.146;2022-11-15T01:23:39;1.65;;;1.40;;
7511;SDS011;9999;48.780;9.146;2022-11-15T01:26:25;1.75;;;1.35;;
7511;SDS011;9999;48.780;9.146;2022-11-15T01:29:12;4.68;;;1.48;;
7511;SDS011;9999;48.780;9.146;2022-11-15T01:31:57;5.70;;;1.48;;
7511;SDS011;9999;48.780;9.146;2022-11-15T01:34:43;2.45;;;1.35;;
7511;SDS011;9999;48.780;9.146;2022-11-15T01:37:28;1.00;;;0.90;;
7511;SDS011;9999;48.780;9.146;2022-11-15T01:40:14;1.57;;;1.43;;
7511;SDS011;9999;48.780;9.146;2022-11-15T01:46:12;1.37;;;1.27;;
7511;SDS011;9999;48.780;9.146;2022-11-15T01:49:10;1.38;;;0.95;;
7511;SDS011;9999;48.780;9.146;2022-11-15T01:51:58;1.10;;;1.10;;
7511;SDS011;9999;48.780;9.146;2022-11-15T01:54:48;8.13;;;1.77;;
7511;SDS011;9999;48.780;9.146;2022-11-15T01:57:38;1.37;;;1.27;;
7511;SDS011;9999;48.780;9.146;2022-11-15T02:00:29;1.60;;;1.50;;
7511;SDS011;9999;48.780;9.146;2022-11-15T02:03:16;3.10;;;1.53;;
7511;SDS011;9999;48.780;9.146;2022-11-15T02:06:02;1.23;;;1.10;;
7511;SDS011;9999;48.780;9.146;2022-11-15T02:08:50;1.87;;;1.30;;
7511;SDS011;9999;48.780;9.146;2022-11-15T02:11:36;1.83;;;1.30;;
7511;SDS011;9999;48.780;9.146;2022-11-15T02:14:21;2.15;;;1.35;;
7511;SDS011;9999;48.780;9.146;2022-11-15T02:17:13;1.30;;;1.20;;
7511;SDS011;9999;48.780;9.146;2022-11-15T02:20:21;1.80;;;1.33;;
7511;SDS011;9999;48.780;9.146;2022-11-15T02:23:33;1.20;;;1.10;;
7511;SDS011;9999;48.780;9.146;2022-11-15T02:26:50;1.37;;;1.27;;
7511;SDS011;9999;48.780;9.146;2022-11-15T02:30:02;1.03;;;0.93;;
7511;SDS011;9999;48.780;9.146;2022-11-15T02:33:00;1.20;;;1.10;;
7511;SDS011;9999;48.780;9.146;2022-11-15T02:35:52;1.33;;;1.23;;
7511;SDS011;9999;48.780;9.146;2022-11-15T02:38:44;0.80;;;0.80;;
7511;SDS011;9999;48.780;9.146;2022-11-15T02:41:39;3.60;;;1.40;;
7511;SDS011;9999;48.780;9.146;2022-11-15T02:44:32;1.23;;;1.00;;
7511;SDS011;9999;48.780;9.146;2022-11-15T02:47:22;1.97;;;1.50;;
7511;SDS011;9999;48.780;9.146;2022-11-15T02:50:12;2.80;;;1.50;;
7511;SDS011;9999;48.780;9.146;2022-11-15T02:53:01;2.67;;;1.07;;
7511;SDS011;9999;48.780;9.146;2022-11-15T02:55:47;1.83;;;0.80;;
7511;SDS011;9999;48.780;9.146;2022-11-15T02:58:48;1.33;;;1.23;;
7511;SDS011;9999;48.780;9.146;2022-11-15T03:01:48;7.80;;;1.20;;
7511;SDS011;9999;48.780;9.146;2022-11-15T03:04:45;1.20;;;1.10;;
7511;SDS011;9999;48.780;9.146;2022-11-15T03:07:39;3.20;;;1.73;;
7511;SDS011;9999;48.780;9.146;2022-11-15T03:10:32;1.93;;;1.10;;
7511;SDS011;9999;48.780;9.146;2022-11-15T03:13:26;0.93;;;0.93;;
7511;SDS011;9999;48.780;9.146;2022-11-15T03:16:15;0.90;;;0.90;;
7511;SDS011;9999;48.780;9.146;2022-11-15T03:19:04;3.90;;;1.60;;
7511;SDS011;9999;48.780;9.146;2022-11-15T03:21:56;2.10;;;1.90;;
7511;SDS011;9999;48.780;9.146;2022-11-15T03:24:44;2.20;;;1.23;;
7511;SDS011;9999;48.780;9.146;2022-11-15T03:27:33;1.10;;;1.00;;
7511;SDS011;9999;48.780;9.146;2022-11-15T03:30:22;3.90;;;1.30;;
7511;SDS011;9999;48.780;9.146;2022-11-15T03:33:08;2.47;;;0.97;;
7511;SDS011;9999;48.780;9.146;2022-11-15T03:35:55;1.80;;;1.07;;
7511;SDS011;9999;48.780;9.146;2022-11-15T03:38:42;1.47;;;1.37;;
7511;SDS011;9999;48.780;9.146;2022-11-15T03:41:30;7.53;;;1.27;;
7511;SDS011;9999;48.780;9.146;2022-11-15T03:44:25;2.10;;;1.37;;
7511;SDS011;9999;48.780;9.146;2022-11-15T03:47:20;1.40;;;1.30;;
7511;SDS011;9999;48.780;9.146;2022-11-15T03:50:10;1.20;;;1.10;;
7511;SDS011;9999;48.780;9.146;2022-11-15T03:52:58;1.40;;;1.03;;
7511;SDS011;9999;48.780;9.146;2022-11-15T03:55:45;2.87;;;1.10;;
7511;SDS011;9999;48.780;9.146;2022-11-15T03:58:30;2.00;;;1.27;;
7511;SDS011;9999;48.780;9.146;2022-11-15T04:01:16;1.23;;;1.13;;
7511;SDS011;9999;48.780;9.146;2022-11-15T04:04:01;1.10;;;1.00;;
7511;SDS011;9999;48.780;9.146;2022-11-15T04:06:47;3.93;;;1.17;;
7511;SDS011;9999;48.780;9.146;2022-11-15T04:09:32;1.67;;;1.57;;
7511;SDS011;9999;48.780;9.146;2022-11-15T04:12:40;4.73;;;1.77;;
7511;SDS011;9999;48.780;9.146;2022-11-15T04:15:30;1.10;;;1.00;;
7511;SDS011;9999;48.780;9.146;2022-11-15T04:18:15;0.80;;;0.80;;
7511;SDS011;9999;48.780;9.146;2022-11-15T04:21:01;1.07;;;1.00;;
7511;SDS011;9999;48.780;9.146;2022-11-15T04:24:04;1.17;;;0.97;;
7511;SDS011;9999;48.780;9.146;2022-11-15T04:26:59;1.80;;;1.13;;
7511;SDS011;9999;48.780;9.146;2022-11-15T04:29:46;2.43;;;1.10;;
7511;SDS011;9999;48.780;9.146;2022-11-15T04:32:31;1.80;;;1.20;;
7511;SDS011;9999;48.780;9.146;2022-11-15T04:35:17;2.87;;;1.77;;
7511;SDS011;9999;48.780;9.146;2022-11-15T04:38:03;1.90;;;1.40;;
7511;SDS011;9999;48.780;9.146;2022-11-15T04:40:49;1.20;;;1.20;;
7511;SDS011;9999;48.780;9.146;2022-11-15T04:43:35;1.33;;;1.23;;
7511;SDS011;9999;48.780;9.146;2022-11-15T04:46:22;1.43;;;0.90;;
7511;SDS011;9999;48.780;9.146;2022-11-15T04:49:08;2.23;;;1.43;;
7511;SDS011;9999;48.780;9.146;2022-11-15T04:51:54;1.80;;;1.17;;
7511;SDS011;9999;48.780;9.146;2022-11-15T04:54:39;1.03;;;0.97;;
7511;SDS011;9999;48.780;9.146;2022-11-15T04:57:25;2.03;;;1.00;;
7511;SDS011;9999;48.780;9.146;2022-11-15T05:00:12;0.67;;;0.67;;
7511;SDS011;9999;48.780;9.146;2022-11-15T05:03:01;1.83;;;1.67;;
7511;SDS011;9999;48.780;9.146;2022-11-15T05:06:05;1.10;;;0.80;;
7511;SDS011;9999;48.780;9.146;2022-11-15T05:08:51;0.60;;;0.60;;
7511;SDS011;9999;48.780;9.146;2022-11-15T05:11:36;0.70;;;0.70;;
7511;SDS011;9999;48.780;9.146;2022-11-15T05:14:22;1.27;;;1.13;;
7511;SDS011;9999;48.780;9.146;2022-11-15T05:17:07;2.23;;;1.40;;
7511;SDS011;9999;48.780;9.146;2022-11-15T05:19:54;4.20;;;1.07;;
7511;SDS011;9999;48.780;9.146;2022-11-15T05:22:40;1.30;;;1.20;;
7511;SDS011;9999;48.780;9.146;2022-11-15T05:25:25;1.17;;;1.07;;
7511;SDS011;9999;48.780;9.146;2022-11-15T05:28:11;1.00;;;1.00;;
7511;SDS011;9999;48.780;9.146;2022-11-15T05:31:00;1.33;;;1.00;;
7511;SDS011;9999;48.780;9.146;2022-11-15T05:33:45;1.87;;;0.87;;
7511;SDS011;9999;48.780;9.146;2022-11-15T05:36:33;1.23;;;0.77;;
7511;SDS011;9999;48.780;9.146;2022-11-15T05:39:22;4.40;;;1.30;;
7511;SDS011;9999;48.780;9.146;2022-11-15T05:42:10;1.93;;;1.37;;
7511;SDS011;9999;48.780;9.146;2022-11-15T05:44:56;0.90;;;0.90;;
7511;SDS011;9999;48.780;9.146;2022-11-15T05:47:43;1.23;;;1.00;;
7511;SDS011;9999;48.780;9.146;2022-11-15T05:50:29;1.23;;;1.13;;
7511;SDS011;9999;48.780;9.146;2022-11-15T05:53:17;1.50;;;1.00;;
7511;SDS011;9999;48.780;9.146;2022-11-15T05:56:04;1.07;;;0.83;;
7511;SDS011;9999;48.780;9.146;2022-11-15T05:58:51;1.90;;;1.10;;
7511;SDS011;9999;48.780;9.146;2022-11-15T06:01:38;1.43;;;1.33;;
7511;SDS011;9999;48.780;9.146;2022-11-15T06:04:24;0.83;;;0.83;;
7511;SDS011;9999;48.780;9.146;2022-11-15T06:07:09;1.10;;;1.10;;
7511;SDS011;9999;48.780;9.146;2022-11-15T06:09:56;1.57;;;1.27;;
7511;SDS011;9999;48.780;9.146;2022-11-15T06:12:41;1.87;;;1.13;;
7511;SDS011;9999;48.780;9.146;2022-11-15T06:15:27;0.90;;;0.90;;
7511;SDS011;9999;48.780;9.146;2022-11-15T06:18:13;2.73;;;1.80;;
7511;SDS011;9999;48.780;9.146;2022-11-15T06:20:59;1.40;;;1.30;;
7511;SDS011;9999;48.780;9.146;2022-11-15T06:23:45;1.20;;;1.10;;
7511;SDS011;9999;48.780;9.146;2022-11-15T06:26:31;1.23;;;1.13;;
7511;SDS011;9999;48.780;9.146;2022-11-15T06:29:17;6.23;;;1.30;;
7511;SDS011;9999;48.780;9.146;2022-11-15T06:32:04;2.53;;;1.40;;
7511;SDS011;9999;48.780;9.146;2022-11-15T06:34:49;1.43;;;1.10;;
7511;SDS011;9999;48.780;9.146;2022-11-15T06:37:35;2.07;;;1.33;;
7511;SDS011;9999;48.780;9.146;2022-11-15T06:40:20;1.70;;;1.23;;
7511;SDS011;9999;48.780;9.146;2022-11-15T06:43:07;2.63;;;1.70;;
7511;SDS011;9999;48.780;9.146;2022-11-15T06:45:52;1.57;;;1.47;;
7511;SDS011;9999;48.780;9.146;2022-11-15T06:48:38;5.30;;;1.33;;
7511;SDS011;9999;48.780;9.146;2022-11-15T06:51:23;1.37;;;1.20;;
7511;SDS011;9999;48.780;9.146;2022-11-15T06:54:09;1.53;;;1.03;;
7511;SDS011;9999;48.780;9.146;2022-11-15T06:56:54;1.77;;;1.53;;
7511;SDS011;9999;48.780;9.146;2022-11-15T06:59:41;1.80;;;1.50;;
7511;SDS011;9999;48.780;9.146;2022-11-15T07:02:27;1.40;;;1.30;;
7511;SDS011;9999;48.780;9.146;2022-11-15T07:05:13;1.37;;;1.27;;
7511;SDS011;9999;48.780;9.146;2022-11-15T07:07:59;1.60;;;1.50;;
7511;SDS011;9999;48.780;9.146;2022-11-15T07:10:45;2.93;;;2.13;;
7511;SDS011;9999;48.780;9.146;2022-11-15T07:13:31;1.50;;;1.40;;
7511;SDS011;9999;48.780;9.146;2022-11-15T07:16:18;1.77;;;1.50;;
7511;SDS011;9999;48.780;9.146;2022-11-15T07:19:04;1.97;;;1.83;;
7511;SDS011;9999;48.780;9.146;2022-11-15T07:21:49;2.07;;;1.87;;
7511;SDS011;9999;48.780;9.146;2022-11-15T07:24:35;2.27;;;1.50;;
7511;SDS011;9999;48.780;9.146;2022-11-15T07:27:20;2.20;;;1.47;;
7511;SDS011;9999;48.780;9.146;2022-11-15T07:30:06;3.60;;;1.53;;
7511;SDS011;9999;48.780;9.146;2022-11-15T07:32:54;3.07;;;1.43;;
7511;SDS011;9999;48.780;9.146;2022-11-15T07:35:40;1.83;;;1.73;;
7511;SDS011;9999;48.780;9.146;2022-11-15T07:38:26;2.10;;;1.30;;
7511;SDS011;9999;48.780;9.146;2022-11-15T07:41:12;4.73;;;1.83;;
7511;SDS011;9999;48.780;9.146;2022-11-15T07:43:57;1.23;;;1.13;;
7511;SDS011;9999;48.780;9.146;2022-11-15T07:46:43;1.73;;;1.60;;
7511;SDS011;9999;48.780;9.146;2022-11-15T07:49:30;2.15;;;1.60;;
7511;SDS011;9999;48.780;9.146;2022-11-15T07:52:15;10.03;;;1.90;;
7511;SDS011;9999;48.780;9.146;2022-11-15T07:55:01;3.97;;;1.45;;
7511;SDS011;9999;48.780;9.146;2022-11-15T07:57:47;1.30;;;1.20;;
7511;SDS011;9999;48.780;9.146;2022-11-15T08:00:33;1.88;;;1.58;;
7511;SDS011;9999;48.780;9.146;2022-11-15T08:03:18;1.60;;;1.50;;
7511;SDS011;9999;48.780;9.146;2022-11-15T08:06:05;1.17;;;1.17;;
7511;SDS011;9999;48.780;9.146;2022-11-15T08:08:51;1.20;;;1.20;;
7511;SDS011;9999;48.780;9.146;2022-11-15T08:11:37;0.95;;;0.95;;
7511;SDS011;9999;48.780;9.146;2022-11-15T08:14:23;1.63;;;1.50;;
7511;SDS011;9999;48.780;9.146;2022-11-15T08:17:08;2.05;;;1.30;;
7511;SDS011;9999;48.780;9.146;2022-11-15T08:19:54;1.85;;;1.25;;
7511;SDS011;9999;48.780;9.146;2022-11-15T08:22:41;1.60;;;1.50;;
7511;SDS011;9999;48.780;9.146;2022-11-15T08:25:27;1.27;;;0.95;;
7511;SDS011;9999;48.780;9.146;2022-11-15T08:28:15;1.98;;;1.30;;
7511;SDS011;9999;48.780;9.146;2022-11-15T08:31:02;2.25;;;1.58;;
7511;SDS011;9999;48.780;9.146;2022-11-15T08:33:48;2.20;;;1.23;;
7511;SDS011;9999;48.780;9.146;2022-11-15T08:36:34;1.15;;;1.02;;
7511;SDS011;9999;48.780;9.146;2022-11-15T08:39:20;1.65;;;1.55;;
7511;SDS011;9999;48.780;9.146;2022-11-15T08:42:06;2.38;;;1.95;;
7511;SDS011;9999;48.780;9.146;2022-11-15T08:44:51;2.10;;;1.70;;
7511;SDS011;9999;48.780;9.146;2022-11-15T08:47:37;2.45;;;1.58;;
7511;SDS011;9999;48.780;9.146;2022-11-15T08:50:22;2.38;;;1.35;;
7511;SDS011;9999;48.780;9.146;2022-11-15T08:53:08;1.45;;;1.35;;
7511;SDS011;9999;48.780;9.146;2022-11-15T08:55:56;1.63;;;1.15;;
7511;SDS011;9999;48.780;9.146;2022-11-15T08:58:41;2.90;;;1.35;;
7511;SDS011;9999;48.780;9.146;2022-11-15T09:01:27;2.63;;;0.95;;
7511;SDS011;9999;48.780;9.146;2022-11-15T09:04:12;1.80;;;1.40;;
7511;SDS011;9999;48.780;9.146;2022-11-15T09:06:58;1.77;;;1.67;;
7511;SDS011;9999;48.780;9.146;2022-11-15T09:09:44;1.08;;;0.90;;
7511;SDS011;9999;48.780;9.146;2022-11-15T09:12:30;1.85;;;1.45;;
7511;SDS011;9999;48.780;9.146;2022-11-15T09:15:16;2.15;;;1.73;;
7511;SDS011;9999;48.780;9.146;2022-11-15T09:18:03;5.80;;;2.65;;
7511;SDS011;9999;48.780;9.146;2022-11-15T09:20:48;3.30;;;2.03;;
7511;SDS011;9999;48.780;9.146;2022-11-15T09:23:34;3.90;;;1.70;;
7511;SDS011;9999;48.780;9.146;2022-11-15T09:26:19;2.22;;;1.52;;
7511;SDS011;9999;48.780;9.146;2022-11-15T09:29:06;1.15;;;1.08;;
7511;SDS011;9999;48.780;9.146;2022-11-15T09:31:52;2.17;;;1.40;;
7511;SDS011;9999;48.780;9.146;2022-11-15T09:34:37;2.08;;;1.63;;
7511;SDS011;9999;48.780;9.146;2022-11-15T09:37:23;2.42;;;1.27;;
7511;SDS011;9999;48.780;9.146;2022-11-15T09:40:09;1.25;;;1.15;;
7511;SDS011;9999;48.780;9.146;2022-11-15T09:43:05;2.33;;;1.00;;
7511;SDS011;9999;48.780;9.146;2022-11-15T09:46:04;1.77;;;1.30;;
7511;SDS011;9999;48.780;9.146;2022-11-15T09:49:19;1.48;;;1.10;;
7511;SDS011;9999;48.780;9.146;2022-11-15T09:52:06;2.60;;;2.05;;
7511;SDS011;9999;48.780;9.146;2022-11-15T09:54:36;1.85;;;1.50;;
7511;SDS011;9999;48.780;9.146;2022-11-15T09:57:04;2.90;;;1.80;;
7511;SDS011;9999;48.780;9.146;2022-11-15T09:59:43;1.40;;;1.10;;
7511;SDS011;9999;48.780;9.146;2022-11-15T10:02:23;2.22;;;0.88;;
7511;SDS011;9999;48.780;9.146;2022-11-15T10:05:02;1.98;;;1.52;;
7511;SDS011;9999;48.780;9.146;2022-11-15T10:07:31;2.30;;;1.50;;
7511;SDS011;9999;48.780;9.146;2022-11-15T10:10:09;4.18;;;1.17;;
7511;SDS011;9999;48.780;9.146;2022-11-15T10:12:40;0.90;;;0.90;;
7511;SDS011;9999;48.780;9.146;2022-11-15T10:15:13;1.13;;;1.13;;
7511;SDS011;9999;48.780;9.146;2022-11-15T10:20:40;1.35;;;1.25;;
7511;SDS011;9999;48.780;9.146;2022-11-15T10:23:13;1.67;;;1.30;;
7511;SDS011;9999;48.780;9.146;2022-11-15T10:25:42;2.42;;;1.15;;
7511;SDS011;9999;48.780;9.146;2022-11-15T10:28:10;2.60;;;1.30;;
7511;SDS011;9999;48.780;9.146;2022-11-15T10:30:42;1.17;;;0.77;;
7511;SDS011;9999;48.780;9.146;2022-11-15T10:33:19;2.22;;;1.25;;
7511;SDS011;9999;48.780;9.146;2022-11-15T10:38:52;3.25;;;1.17;;
7511;SDS011;9999;48.780;9.146;2022-11-15T10:41:29;2.25;;;1.50;;
7511;SDS011;9999;48.780;9.146;2022-11-15T10:44:09;2.15;;;1.40;;
7511;SDS011;9999;48.780;9.146;2022-11-15T10:46:45;2.42;;;2.13;;
7511;SDS011;9999;48.780;9.146;2022-11-15T10:49:17;3.33;;;1.65;;
7511;SDS011;9999;48.780;9.146;2022-11-15T10:51:46;4.47;;;1.30;;
7511;SDS011;9999;48.780;9.146;2022-11-15T10:54:18;1.42;;;1.13;;
7511;SDS011;9999;48.780;9.146;2022-11-15T10:56:50;1.48;;;1.10;;
7511;SDS011;9999;48.780;9.146;2022-11-15T10:59:21;2.22;;;1.48;;
7511;SDS011;9999;48.780;9.146;2022-11-15T11:01:50;1.95;;;1.73;;
7511;SDS011;9999;48.780;9.146;2022-11-15T11:04:18;2.70;;;1.20;;
7511;SDS011;9999;48.780;9.146;2022-11-15T11:06:46;1.17;;;1.17;;
7511;SDS011;9999;48.780;9.146;2022-11-15T11:09:21;4.45;;;1.00;;
7511;SDS011;9999;48.780;9.146;2022-11-15T11:11:55;1.17;;;1.02;;
7511;SDS011;9999;48.780;9.146;2022-11-15T11:14:22;0.80;;;0.80;;
7511;SDS011;9999;48.780;9.146;2022-11-15T11:16:52;1.17;;;1.05;;
7511;SDS011;9999;48.780;9.146;2022-11-15T11:19:35;1.10;;;1.00;;
7511;SDS011;9999;48.780;9.146;2022-11-15T11:22:14;1.88;;;1.45;;
7511;SDS011;9999;48.780;9.146;2022-11-15T11:24:47;1.23;;;1.10;;
7511;SDS011;9999;48.780;9.146;2022-11-15T11:27:24;2.65;;;1.02;;
7511;SDS011;9999;48.780;9.146;2022-11-15T11:30:02;1.05;;;1.00;;
7511;SDS011;9999;48.780;9.146;2022-11-15T11:32:39;1.05;;;0.90;;
7511;SDS011;9999;48.780;9.146;2022-11-15T11:35:18;4.50;;;1.10;;
7511;SDS011;9999;48.780;9.146;2022-11-15T11:37:49;4.00;;;1.90;;
7511;SDS011;9999;48.780;9.146;2022-11-15T11:40:26;4.47;;;1.08;;
7511;SDS011;9999;48.780;9.146;2022-11-15T11:42:58;1.25;;;0.93;;
7511;SDS011;9999;48.780;9.146;2022-11-15T11:45:52;1.15;;;0.90;;
7511;SDS011;9999;48.780;9.146;2022-11-15T11:48:35;2.40;;;0.98;;
7511;SDS011;9999;48.780;9.146;2022-11-15T11:51:10;1.58;;;1.27;;
7511;SDS011;9999;48.780;9.146;2022-11-15T11:53:43;3.42;;;1.00;;
7511;SDS011;9999;48.780;9.146;2022-11-15T11:56:19;0.57;;;0.57;;
7511;SDS011;9999;48.780;9.146;2022-11-15T11:58:50;3.22;;;1.33;;
7511;SDS011;9999;48.780;9.146;2022-11-15T12:01:21;1.58;;;1.25;;
7511;SDS011;9999;48.780;9.146;2022-11-15T12:03:51;1.38;;;1.27;;
7511;SDS011;9999;48.780;9.146;2022-11-15T12:06:24;1.08;;;0.98;;
7511;SDS011;9999;48.780;9.146;2022-11-15T12:08:58;3.88;;;0.93;;
7511;SDS011;9999;48.780;9.146;2022-11-15T12:11:34;2.30;;;1.63;;
7511;SDS011;9999;48.780;9.146;2022-11-15T12:14:05;3.22;;;1.17;;
7511;SDS011;9999;48.780;9.146;2022-11-15T12:16:39;1.10;;;1.02;;
7511;SDS011;9999;48.780;9.146;2022-11-15T12:19:08;1.10;;;1.00;;
7511;SDS011;9999;48.780;9.146;2022-11-15T12:21:39;3.10;;;0.98;;
7511;SDS011;9999;48.780;9.146;2022-11-15T12:24:12;6.22;;;1.15;;
7511;SDS011;9999;48.780;9.146;2022-11-15T12:26:45;1.45;;;1.05;;
7511;SDS011;9999;48.780;9.146;2022-11-15T12:29:16;1.02;;;1.02;;
7511;SDS011;9999;48.780;9.146;2022-11-15T12:31:50;1.20;;;1.10;;
7511;SDS011;9999;48.780;9.146;2022-11-15T12:40:22;1.63;;;1.00;;
7511;SDS011;9999;48.780;9.146;2022-11-15T12:43:01;3.15;;;1.10;;
7511;SDS011;9999;48.780;9.146;2022-11-15T12:45:52;1.33;;;1.23;;
7511;SDS011;9999;48.780;9.146;2022-11-15T12:51:15;1.05;;;0.73;;
7511;SDS011;9999;48.780;9.146;2022-11-15T12:53:44;2.42;;;1.65;;
7511;SDS011;9999;48.780;9.146;2022-11-15T12:56:21;6.22;;;1.10;;
7511;SDS011;9999;48.780;9.146;2022-11-15T12:58:49;1.85;;;0.82;;
7511;SDS011;9999;48.780;9.146;2022-11-15T13:01:52;1.77;;;0.90;;
7511;SDS011;9999;48.780;9.146;2022-11-15T13:04:28;1.58;;;0.80;;
7511;SDS011;9999;48.780;9.146;2022-11-15T13:06:58;0.82;;;0.80;;
7511;SDS011;9999;48.780;9.146;2022-11-15T13:09:51;1.58;;;1.10;;
7511;SDS011;9999;48.780;9.146;2022-11-15T13:15:31;1.77;;;1.42;;
7511;SDS011;9999;48.780;9.146;2022-11-15T13:18:25;1.77;;;1.00;;
7511;SDS011;9999;48.780;9.146;2022-11-15T13:21:01;2.42;;;1.55;;
7511;SDS011;9999;48.780;9.146;2022-11-15T13:23:53;1.13;;;1.02;;
7511;SDS011;9999;48.780;9.146;2022-11-15T13:26:21;6.47;;;1.50;;
7511;SDS011;9999;48.780;9.146;2022-11-15T13:28:49;2.65;;;1.85;;
7511;SDS011;9999;48.780;9.146;2022-11-15T13:31:24;2.65;;;1.63;;
7511;SDS011;9999;48.780;9.146;2022-11-15T13:33:55;1.23;;;1.13;;
7511;SDS011;9999;48.780;9.146;2022-11-15T13:36:25;1.77;;;1.13;;
7511;SDS011;9999;48.780;9.146;2022-11-15T13:38:55;1.45;;;1.08;;
7511;SDS011;9999;48.780;9.146;2022-11-15T13:41:25;1.38;;;1.27;;
7511;SDS011;9999;48.780;9.146;2022-11-15T13:43:54;1.77;;;1.60;;
7511;SDS011;9999;48.780;9.146;2022-11-15T13:46:22;1.92;;;1.20;;
7511;SDS011;9999;48.780;9.146;2022-11-15T13:48:51;1.45;;;1.35;;
7511;SDS011;9999;48.780;9.146;2022-11-15T13:51:23;1.63;;;1.52;;
7511;SDS011;9999;48.780;9.146;2022-11-15T13:53:55;1.92;;;1.70;;
7511;SDS011;9999;48.780;9.146;2022-11-15T13:56:26;3.50;;;2.45;;
7511;SDS011;9999;48.780;9.146;2022-11-15T13:58:55;4.50;;;2.92;;
7511;SDS011;9999;48.780;9.146;2022-11-15T14:01:22;7.85;;;2.50;;
7511;SDS011;9999;48.780;9.146;2022-11-15T14:03:53;5.80;;;3.10;;
7511;SDS011;9999;48.780;9.146;2022-11-15T14:06:23;1.80;;;1.70;;
7511;SDS011;9999;48.780;9.146;2022-11-15T14:08:59;5.47;;;2.75;;
7511;SDS011;9999;48.780;9.146;2022-11-15T14:11:30;3.88;;;2.15;;
7511;SDS011;9999;48.780;9.146;2022-11-15T14:13:59;4.93;;;1.85;;
7511;SDS011;9999;48.780;9.146;2022-11-15T14:16:38;2.65;;;2.25;;
7511;SDS011;9999;48.780;9.146;2022-11-15T14:19:06;2.65;;;2.10;;
7511;SDS011;9999;48.780;9.146;2022-11-15T14:21:37;2.13;;;1.75;;
7511;SDS011;9999;48.780;9.146;2022-11-15T14:24:16;3.72;;;2.05;;
7511;SDS011;9999;48.780;9.146;2022-11-15T14:26:45;2.08;;;1.88;;
7511;SDS011;9999;48.780;9.146;2022-11-15T14:29:22;5.45;;;2.30;;
7511;SDS011;9999;48.780;9.146;2022-11-15T14:31:49;2.20;;;1.85;;
7511;SDS011;9999;48.780;9.146;2022-11-15T14:34:16;2.38;;;1.88;;
7511;SDS011;9999;48.780;9.146;2022-11-15T14:36:43;4.30;;;1.88;;
7511;SDS011;9999;48.780;9.146;2022-11-15T14:39:10;4.30;;;2.05;;
7511;SDS011;9999;48.780;9.146;2022-11-15T14:41:36;5.90;;;1.90;;
7511;SDS011;9999;48.780;9.146;2022-11-15T14:44:05;2.55;;;2.15;;
7511;SDS011;9999;48.780;9.146;2022-11-15T14:46:32;5.38;;;2.25;;
7511;SDS011;9999;48.780;9.146;2022-11-15T14:48:59;3.53;;;2.10;;
7511;SDS011;9999;48.780;9.146;2022-11-15T14:51:26;4.07;;;1.90;;
7511;SDS011;9999;48.780;9.146;2022-11-15T14:53:53;2.30;;;1.85;;
7511;SDS011;9999;48.780;9.146;2022-11-15T14:56:20;5.38;;;2.35;;
7511;SDS011;9999;48.780;9.146;2022-11-15T14:58:47;4.40;;;2.60;;
7511;SDS011;9999;48.780;9.146;2022-11-15T15:01:16;4.28;;;1.83;;
7511;SDS011;9999;48.780;9.146;2022-11-15T15:03:45;1.83;;;1.33;;
7511;SDS011;9999;48.780;9.146;2022-11-15T15:06:12;3.17;;;2.13;;
7511;SDS011;9999;48.780;9.146;2022-11-15T15:08:40;1.92;;;1.45;;
7511;SDS011;9999;48.780;9.146;2022-11-15T15:11:08;3.55;;;1.60;;
7511;SDS011;9999;48.780;9.146;2022-11-15T15:13:39;4.57;;;2.00;;
7511;SDS011;9999;48.780;9.146;2022-11-15T15:16:06;2.92;;;1.95;;
7511;SDS011;9999;48.780;9.146;2022-11-15T15:18:34;3.22;;;1.65;;
7511;SDS011;9999;48.780;9.146;2022-11-15T15:21:01;2.83;;;2.05;;
7511;SDS011;9999;48.780;9.146;2022-11-15T15:23:32;2.28;;;1.45;;
7511;SDS011;9999;48.780;9.146;2022-11-15T15:26:00;3.22;;;1.60;;
7511;SDS011;9999;48.780;9.146;2022-11-15T15:28:27;2.95;;;1.80;;
7511;SDS011;9999;48.780;9.146;2022-11-15T15:30:54;3.05;;;1.67;;
7511;SDS011;9999;48.780;9.146;2022-11-15T15:33:21;1.80;;;1.70;;
7511;SDS011;9999;48.780;9.146;2022-11-15T15:35:49;3.33;;;2.10;;
7511;SDS011;9999;48.780;9.146;2022-11-15T15:38:16;1.60;;;1.50;;
7511;SDS011;9999;48.780;9.146;2022-11-15T15:40:43;2.63;;;1.42;;
7511;SDS011;9999;48.780;9.146;2022-11-15T15:43:09;2.58;;;2.30;;
7511;SDS011;9999;48.780;9.146;2022-11-15T15:45:36;3.05;;;1.95;;
7511;SDS011;9999;48.780;9.146;2022-11-15T15:48:04;2.25;;;1.55;;
7511;SDS011;9999;48.780;9.146;2022-11-15T15:50:32;2.95;;;1.88;;
7511;SDS011;9999;48.780;9.146;2022-11-15T15:53:02;3.90;;;2.13;;
7511;SDS011;9999;48.780;9.146;2022-11-15T15:55:30;2.25;;;1.58;;
7511;SDS011;9999;48.780;9.146;2022-11-15T15:57:57;1.95;;;1.85;;
7511;SDS011;9999;48.780;9.146;2022-11-15T16:00:24;2.20;;;2.08;;
7511;SDS011;9999;48.780;9.146;2022-11-15T16:02:52;3.92;;;2.70;;
7511;SDS011;9999;48.780;9.146;2022-11-15T16:05:19;4.93;;;2.25;;
7511;SDS011;9999;48.780;9.146;2022-11-15T16:07:47;2.80;;;2.33;;
7511;SDS011;9999;48.780;9.146;2022-11-15T16:10:18;2.80;;;2.38;;
7511;SDS011;9999;48.780;9.146;2022-11-15T16:12:46;2.38;;;1.95;;
7511;SDS011;9999;48.780;9.146;2022-11-15T16:15:14;2.85;;;2.05;;
7511;SDS011;9999;48.780;9.146;2022-11-15T16:17:46;2.70;;;1.95;;
7511;SDS011;9999;48.780;9.146;2022-11-15T16:20:29;2.55;;;1.98;;
7511;SDS011;9999;48.780;9.146;2022-11-15T16:22:58;3.75;;;2.13;;
7511;SDS011;9999;48.780;9.146;2022-11-15T16:25:26;4.00;;;2.33;;
7511;SDS011;9999;48.780;9.146;2022-11-15T16:27:53;6.05;;;2.83;;
7511;SDS011;9999;48.780;9.146;2022-11-15T16:30:21;3.00;;;2.70;;
7511;SDS011;9999;48.780;9.146;2022-11-15T16:32:49;5.00;;;2.85;;
7511;SDS011;9999;48.780;9.146;2022-11-15T16:35:16;3.00;;;2.22;;
7511;SDS011;9999;48.780;9.146;2022-11-15T16:37:43;3.83;;;2.00;;
7511;SDS011;9999;48.780;9.146;2022-11-15T16:40:25;3.22;;;2.47;;
7511;SDS011;9999;48.780;9.146;2022-11-15T16:42:55;3.67;;;2.05;;
7511;SDS011;9999;48.780;9.146;2022-11-15T16:45:22;3.75;;;2.28;;
7511;SDS011;9999;48.780;9.146;2022-11-15T16:47:49;2.33;;;2.10;;
7511;SDS011;9999;48.780;9.146;2022-11-15T16:50:19;2.88;;;2.63;;
7511;SDS011;9999;48.780;9.146;2022-11-15T16:52:50;2.03;;;1.73;;
7511;SDS011;9999;48.780;9.146;2022-11-15T16:55:18;2.25;;;2.10;;
7511;SDS011;9999;48.780;9.146;2022-11-15T16:57:46;2.47;;;2.28;;
7511;SDS011;9999;48.780;9.146;2022-11-15T17:00:14;2.97;;;2.65;;